sensor_id;sensor_type;location;lat;lon;timestamp;pressure;altitude;pressure_sealevel;temperature;humidity
77321;BME280;66382;52.252;8.780;2024-02-16T00:01:00;100189.59;;;12.04;73.04
77321;BME280;66382;52.252;8.780;2024-02-16T00:03:25;100192.28;;;12.04;73.68
77321;BME280;66382;52.252;8.780;2024-02-16T00:05:51;100185.09;;;12.04;73.72
77321;BME280;66382;52.252;8.780;2024-02-16T00:08:17;100192.91;;;12.06;73.56
77321;BME280;66382;52.252;8.780;2024-02-16T00:10:42;100182.41;;;12.04;73.28
77321;BME280;66382;52.252;8.780;2024-02-16T00:13:08;100187.53;;;12.06;72.83
77321;BME280;66382;52.252;8.780;2024-02-16T00:15:34;100193.16;;;12.04;73.54
77321;BME280;66382;52.252;8.780;2024-02-16T00:18:00;100193.16;;;12.04;73.32
77321;BME280;66382;52.252;8.780;2024-02-16T00:20:25;100190.66;;;12.03;73.13
77321;BME280;66382;52.252;8.780;2024-02-16T00:22:51;100189.81;;;12.02;73.88
77321;BME280;66382;52.252;8.780;2024-02-16T00:25:16;100193.53;;;12.01;73.74
77321;BME280;66382;52.252;8.780;2024-02-16T00:27:42;100186.50;;;12.00;73.21
77321;BME280;66382;52.252;8.780;2024-02-16T00:30:08;100189.19;;;12.00;73.15
77321;BME280;66382;52.252;8.780;2024-02-16T00:32:35;100180.50;;;11.98;73.05
77321;BME280;66382;52.252;8.780;2024-02-16T00:35:00;100182.81;;;11.95;73.55
77321;BME280;66382;52.252;8.780;2024-02-16T00:37:26;100185.69;;;11.93;73.19
77321;BME280;66382;52.252;8.780;2024-02-16T00:39:51;100186.72;;;11.92;74.07
77321;BME280;66382;52.252;8.780;2024-02-16T00:42:17;100189.59;;;11.91;73.59
77321;BME280;66382;52.252;8.780;2024-02-16T00:44:42;100179.28;;;11.88;72.73
77321;BME280;66382;52.252;8.780;2024-02-16T00:47:08;100182.97;;;11.87;73.69
77321;BME280;66382;52.252;8.780;2024-02-16T00:49:34;100181.13;;;11.87;73.85
77321;BME280;66382;52.252;8.780;2024-02-16T00:52:00;100182.13;;;11.86;73.64
77321;BME280;66382;52.252;8.780;2024-02-16T00:54:25;100179.66;;;11.84;73.23
77321;BME280;66382;52.252;8.780;2024-02-16T00:56:51;100181.31;;;11.86;72.73
77321;BME280;66382;52.252;8.780;2024-02-16T00:59:16;100175.53;;;11.82;72.40
77321;BME280;66382;52.252;8.780;2024-02-16T01:01:41;100176.53;;;11.81;73.76
77321;BME280;66382;52.252;8.780;2024-02-16T01:04:07;100176.34;;;11.82;73.60
77321;BME280;66382;52.252;8.780;2024-02-16T01:06:34;100178.81;;;11.84;73.42
77321;BME280;66382;52.252;8.780;2024-02-16T01:08:59;100171.59;;;11.84;73.94
77321;BME280;66382;52.252;8.780;2024-02-16T01:11:24;100184.00;;;11.86;73.12
77321;BME280;66382;52.252;8.780;2024-02-16T01:13:50;100180.47;;;11.85;72.52
77321;BME280;66382;52.252;8.780;2024-02-16T01:16:15;100174.28;;;11.84;73.38
77321;BME280;66382;52.252;8.780;2024-02-16T01:18:41;100176.75;;;11.86;73.42
77321;BME280;66382;52.252;8.780;2024-02-16T01:21:06;100174.91;;;11.87;73.13
77321;BME280;66382;52.252;8.780;2024-02-16T01:23:33;100177.22;;;11.90;72.80
77321;BME280;66382;52.252;8.780;2024-02-16T01:25:59;100178.84;;;11.91;73.87
77321;BME280;66382;52.252;8.780;2024-02-16T01:28:24;100174.31;;;11.91;73.37
77321;BME280;66382;52.252;8.780;2024-02-16T01:30:50;100173.28;;;11.92;73.45
77321;BME280;66382;52.252;8.780;2024-02-16T01:33:15;100184.22;;;11.91;73.62
77321;BME280;66382;52.252;8.780;2024-02-16T01:35:41;100183.41;;;11.90;72.95
77321;BME280;66382;52.252;8.780;2024-02-16T01:38:06;100178.84;;;11.91;73.57
77321;BME280;66382;52.252;8.780;2024-02-16T01:40:33;100179.69;;;11.91;73.17
77321;BME280;66382;52.252;8.780;2024-02-16T01:42:59;100180.50;;;11.92;72.98
77321;BME280;66382;52.252;8.780;2024-02-16T01:45:24;100178.66;;;11.92;73.46
77321;BME280;66382;52.252;8.780;2024-02-16T01:47:51;100177.81;;;11.92;73.35
77321;BME280;66382;52.252;8.780;2024-02-16T01:50:18;100184.22;;;11.91;73.01
77321;BME280;66382;52.252;8.780;2024-02-16T01:52:45;100179.06;;;11.89;72.99
77321;BME280;66382;52.252;8.780;2024-02-16T01:55:12;100175.78;;;11.87;73.24
77321;BME280;66382;52.252;8.780;2024-02-16T01:57:39;100171.38;;;11.86;72.70
77321;BME280;66382;52.252;8.780;2024-02-16T02:00:06;100173.44;;;11.84;73.07
77321;BME280;66382;52.252;8.780;2024-02-16T02:02:31;100166.44;;;11.83;72.87
77321;BME280;66382;52.252;8.780;2024-02-16T02:04:57;100164.78;;;11.82;72.53
77321;BME280;66382;52.252;8.780;2024-02-16T02:07:25;100167.84;;;11.79;73.30
77321;BME280;66382;52.252;8.780;2024-02-16T02:09:51;100161.47;;;11.80;73.09
77321;BME280;66382;52.252;8.780;2024-02-16T02:12:16;100153.59;;;11.78;73.36
77321;BME280;66382;52.252;8.780;2024-02-16T02:14:43;100151.75;;;11.79;73.43
77321;BME280;66382;52.252;8.780;2024-02-16T02:17:08;100147.41;;;11.78;73.18
77321;BME280;66382;52.252;8.780;2024-02-16T02:19:34;100153.81;;;11.77;73.30
77321;BME280;66382;52.252;8.780;2024-02-16T02:22:00;100146.97;;;11.74;73.49
77321;BME280;66382;52.252;8.780;2024-02-16T02:24:26;100148.03;;;11.73;72.88
77321;BME280;66382;52.252;8.780;2024-02-16T02:26:52;100144.28;;;11.74;73.65
77321;BME280;66382;52.252;8.780;2024-02-16T02:29:17;100142.47;;;11.75;72.84
77321;BME280;66382;52.252;8.780;2024-02-16T02:31:43;100145.34;;;11.73;72.79
77321;BME280;66382;52.252;8.780;2024-02-16T02:34:09;100135.84;;;11.71;73.07
77321;BME280;66382;52.252;8.780;2024-02-16T02:36:34;100128.19;;;11.68;73.47
77321;BME280;66382;52.252;8.780;2024-02-16T02:39:00;100124.88;;;11.66;73.20
77321;BME280;66382;52.252;8.780;2024-02-16T02:41:27;100126.94;;;11.63;73.08
77321;BME280;66382;52.252;8.780;2024-02-16T02:43:52;100122.63;;;11.62;73.35
77321;BME280;66382;52.252;8.780;2024-02-16T02:46:18;100122.63;;;11.62;73.36
77321;BME280;66382;52.252;8.780;2024-02-16T02:48:44;100118.88;;;11.63;73.93
77321;BME280;66382;52.252;8.780;2024-02-16T02:51:10;100122.19;;;11.66;73.10
77321;BME280;66382;52.252;8.780;2024-02-16T02:53:35;100119.72;;;11.64;72.93
77321;BME280;66382;52.252;8.780;2024-02-16T02:56:01;100117.84;;;11.65;72.93
77321;BME280;66382;52.252;8.780;2024-02-16T02:58:28;100118.69;;;11.65;72.26
77321;BME280;66382;52.252;8.780;2024-02-16T03:00:54;100113.31;;;11.65;72.76
77321;BME280;66382;52.252;8.780;2024-02-16T03:03:19;100113.94;;;11.67;73.42
77321;BME280;66382;52.252;8.780;2024-02-16T03:05:44;100110.84;;;11.70;73.58
77321;BME280;66382;52.252;8.780;2024-02-16T03:08:10;100109.59;;;11.73;72.54
77321;BME280;66382;52.252;8.780;2024-02-16T03:10:35;100104.00;;;11.74;73.12
77321;BME280;66382;52.252;8.780;2024-02-16T03:13:01;100101.13;;;11.76;73.23
77321;BME280;66382;52.252;8.780;2024-02-16T03:15:28;100104.44;;;11.78;73.08
77321;BME280;66382;52.252;8.780;2024-02-16T03:17:53;100104.25;;;11.79;72.90
77321;BME280;66382;52.252;8.780;2024-02-16T03:20:18;100097.84;;;11.80;73.50
77321;BME280;66382;52.252;8.780;2024-02-16T03:22:44;100099.69;;;11.80;73.48
77321;BME280;66382;52.252;8.780;2024-02-16T03:25:09;100097.41;;;11.77;72.90
77321;BME280;66382;52.252;8.780;2024-02-16T03:27:35;100091.84;;;11.78;73.18
77321;BME280;66382;52.252;8.780;2024-02-16T03:30:00;100092.25;;;11.75;73.17
77321;BME280;66382;52.252;8.780;2024-02-16T03:32:27;100090.81;;;11.73;73.35
77321;BME280;66382;52.252;8.780;2024-02-16T03:34:52;100092.88;;;11.71;73.65
77321;BME280;66382;52.252;8.780;2024-02-16T03:37:18;100092.88;;;11.71;73.00
77321;BME280;66382;52.252;8.780;2024-02-16T03:39:43;100101.56;;;11.73;72.94
77321;BME280;66382;52.252;8.780;2024-02-16T03:42:09;100097.19;;;11.72;73.63
77321;BME280;66382;52.252;8.780;2024-02-16T03:44:34;100093.91;;;11.70;73.19
77321;BME280;66382;52.252;8.780;2024-02-16T03:47:00;100088.13;;;11.66;73.80
77321;BME280;66382;52.252;8.780;2024-02-16T03:49:26;100097.41;;;11.63;72.74
77321;BME280;66382;52.252;8.780;2024-02-16T03:54:55;100090.59;;;11.61;73.18
77321;BME280;66382;52.252;8.780;2024-02-16T03:57:20;100082.53;;;11.61;72.90
77321;BME280;66382;52.252;8.780;2024-02-16T03:59:45;100095.56;;;11.57;72.89
77321;BME280;66382;52.252;8.780;2024-02-16T04:02:11;100090.38;;;11.56;73.50
77321;BME280;66382;52.252;8.780;2024-02-16T04:04:38;100085.00;;;11.56;72.57
77321;BME280;66382;52.252;8.780;2024-02-16T04:07:04;100087.28;;;11.52;73.34
77321;BME280;66382;52.252;8.780;2024-02-16T04:09:29;100083.34;;;11.48;73.40
77321;BME280;66382;52.252;8.780;2024-02-16T04:11:54;100086.03;;;11.48;73.28
77321;BME280;66382;52.252;8.780;2024-02-16T04:14:20;100088.72;;;11.48;73.26
77321;BME280;66382;52.252;8.780;2024-02-16T04:16:45;100091.59;;;11.47;71.89
77321;BME280;66382;52.252;8.780;2024-02-16T04:19:11;100081.91;;;11.46;72.66
77321;BME280;66382;52.252;8.780;2024-02-16T04:21:37;100089.13;;;11.45;73.22
77321;BME280;66382;52.252;8.780;2024-02-16T04:24:03;100085.00;;;11.43;73.00
77321;BME280;66382;52.252;8.780;2024-02-16T04:26:29;100086.47;;;11.45;73.42
77321;BME280;66382;52.252;8.780;2024-02-16T04:28:54;100086.66;;;11.44;73.16
77321;BME280;66382;52.252;8.780;2024-02-16T04:31:19;100094.50;;;11.45;72.93
77321;BME280;66382;52.252;8.780;2024-02-16T04:33:45;100098.84;;;11.46;72.82
77321;BME280;66382;52.252;8.780;2024-02-16T04:36:10;100098.00;;;11.46;72.34
77321;BME280;66382;52.252;8.780;2024-02-16T04:38:37;100110.38;;;11.47;73.32
77321;BME280;66382;52.252;8.780;2024-02-16T04:41:04;100105.03;;;11.47;72.86
77321;BME280;66382;52.252;8.780;2024-02-16T04:43:30;100104.00;;;11.48;73.02
77321;BME280;66382;52.252;8.780;2024-02-16T04:45:55;100098.00;;;11.46;72.97
77321;BME280;66382;52.252;8.780;2024-02-16T04:48:20;100103.38;;;11.46;72.91
77321;BME280;66382;52.252;8.780;2024-02-16T04:50:46;100098.19;;;11.44;72.84
77321;BME280;66382;52.252;8.780;2024-02-16T04:53:11;100103.38;;;11.46;72.94
77321;BME280;66382;52.252;8.780;2024-02-16T04:55:38;100098.84;;;11.46;73.52
77321;BME280;66382;52.252;8.780;2024-02-16T04:58:03;100094.91;;;11.49;73.08
77321;BME280;66382;52.252;8.780;2024-02-16T05:00:29;100086.66;;;11.50;73.00
77321;BME280;66382;52.252;8.780;2024-02-16T05:02:54;100094.72;;;11.50;71.91
77321;BME280;66382;52.252;8.780;2024-02-16T05:05:20;100091.41;;;11.48;72.54
77321;BME280;66382;52.252;8.780;2024-02-16T05:07:47;100089.53;;;11.49;72.73
77321;BME280;66382;52.252;8.780;2024-02-16T05:10:13;100089.53;;;11.49;72.44
77321;BME280;66382;52.252;8.780;2024-02-16T05:12:40;100087.69;;;11.49;72.39
77321;BME280;66382;52.252;8.780;2024-02-16T05:15:05;100086.03;;;11.48;72.82
77321;BME280;66382;52.252;8.780;2024-02-16T05:17:31;100083.78;;;11.45;72.27
77321;BME280;66382;52.252;8.780;2024-02-16T05:19:56;100084.16;;;11.42;72.35
77321;BME280;66382;52.252;8.780;2024-02-16T05:22:22;100090.56;;;11.41;72.19
77321;BME280;66382;52.252;8.780;2024-02-16T05:24:47;100085.19;;;11.41;72.43
77321;BME280;66382;52.252;8.780;2024-02-16T05:27:13;100086.44;;;11.38;72.80
77321;BME280;66382;52.252;8.780;2024-02-16T05:29:40;100078.56;;;11.37;72.27
77321;BME280;66382;52.252;8.780;2024-02-16T05:32:05;100068.25;;;11.34;72.43
77321;BME280;66382;52.252;8.780;2024-02-16T05:34:31;100070.13;;;11.33;72.07
77321;BME280;66382;52.252;8.780;2024-02-16T05:36:56;100065.75;;;11.32;72.12
77321;BME280;66382;52.252;8.780;2024-02-16T05:39:22;100059.56;;;11.32;72.76
77321;BME280;66382;52.252;8.780;2024-02-16T05:41:47;100063.09;;;11.32;72.92
77321;BME280;66382;52.252;8.780;2024-02-16T05:44:13;100068.66;;;11.31;72.65
77321;BME280;66382;52.252;8.780;2024-02-16T05:46:40;100070.72;;;11.29;73.05
77321;BME280;66382;52.252;8.780;2024-02-16T05:49:05;100074.22;;;11.29;72.24
77321;BME280;66382;52.252;8.780;2024-02-16T05:51:34;100074.22;;;11.29;72.34
77321;BME280;66382;52.252;8.780;2024-02-16T05:54:00;100077.53;;;11.31;73.06
77321;BME280;66382;52.252;8.780;2024-02-16T05:56:25;100074.44;;;11.34;72.34
77321;BME280;66382;52.252;8.780;2024-02-16T05:58:50;100067.84;;;11.37;73.15
77321;BME280;66382;52.252;8.780;2024-02-16T06:01:16;100065.16;;;11.37;71.89
77321;BME280;66382;52.252;8.780;2024-02-16T06:03:43;100059.16;;;11.35;72.60
77321;BME280;66382;52.252;8.780;2024-02-16T06:06:08;100059.56;;;11.32;72.55
77321;BME280;66382;52.252;8.780;2024-02-16T06:08:34;100060.00;;;11.29;72.62
77321;BME280;66382;52.252;8.780;2024-02-16T06:10:59;100063.09;;;11.26;73.02
77321;BME280;66382;52.252;8.780;2024-02-16T06:13:24;100063.09;;;11.26;72.35
77321;BME280;66382;52.252;8.780;2024-02-16T06:15:50;100065.16;;;11.24;72.08
77321;BME280;66382;52.252;8.780;2024-02-16T06:18:15;100066.78;;;11.25;73.16
77321;BME280;66382;52.252;8.780;2024-02-16T06:20:42;100073.81;;;11.26;72.49
77321;BME280;66382;52.252;8.780;2024-02-16T06:23:07;100064.72;;;11.20;72.82
77321;BME280;66382;52.252;8.780;2024-02-16T06:25:33;100074.44;;;11.21;72.92
77321;BME280;66382;52.252;8.780;2024-02-16T06:27:58;100074.44;;;11.21;72.58
77321;BME280;66382;52.252;8.780;2024-02-16T06:30:24;100087.66;;;11.23;71.93
77321;BME280;66382;52.252;8.780;2024-02-16T06:32:49;100084.34;;;11.21;72.67
77321;BME280;66382;52.252;8.780;2024-02-16T06:35:15;100085.56;;;11.18;72.58
77321;BME280;66382;52.252;8.780;2024-02-16T06:37:41;100086.81;;;11.15;72.63
77321;BME280;66382;52.252;8.780;2024-02-16T06:40:08;100083.50;;;11.13;72.21
77321;BME280;66382;52.252;8.780;2024-02-16T06:42:33;100085.56;;;11.11;72.64
77321;BME280;66382;52.252;8.780;2024-02-16T06:44:59;100089.47;;;11.09;72.16
77321;BME280;66382;52.252;8.780;2024-02-16T06:47:24;100083.66;;;11.05;73.02
77321;BME280;66382;52.252;8.780;2024-02-16T06:49:49;100094.59;;;11.04;71.97
77321;BME280;66382;52.252;8.780;2024-02-16T06:52:15;100081.38;;;11.02;73.07
77321;BME280;66382;52.252;8.780;2024-02-16T06:54:42;100088.19;;;11.05;72.66
77321;BME280;66382;52.252;8.780;2024-02-16T06:57:07;100080.78;;;11.07;73.15
77321;BME280;66382;52.252;8.780;2024-02-16T06:59:32;100085.34;;;11.13;72.64
77321;BME280;66382;52.252;8.780;2024-02-16T07:01:58;100090.72;;;11.19;72.82
77321;BME280;66382;52.252;8.780;2024-02-16T07:04:23;100091.56;;;11.27;72.48
77321;BME280;66382;52.252;8.780;2024-02-16T07:06:49;100094.28;;;11.33;73.26
77321;BME280;66382;52.252;8.780;2024-02-16T07:09:14;100098.00;;;11.39;72.53
77321;BME280;66382;52.252;8.780;2024-02-16T07:11:41;100105.63;;;11.42;72.70
77321;BME280;66382;52.252;8.780;2024-02-16T07:14:07;100105.25;;;11.45;72.44
77321;BME280;66382;52.252;8.780;2024-02-16T07:16:32;100106.69;;;11.48;72.46
77321;BME280;66382;52.252;8.780;2024-02-16T07:18:57;100107.72;;;11.53;72.71
77321;BME280;66382;52.252;8.780;2024-02-16T07:21:23;100117.03;;;11.57;73.02
77321;BME280;66382;52.252;8.780;2024-02-16T07:23:48;100116.81;;;11.59;73.45
77321;BME280;66382;52.252;8.780;2024-02-16T07:26:14;100113.72;;;11.62;72.51
77321;BME280;66382;52.252;8.780;2024-02-16T07:28:40;100116.19;;;11.63;73.30
77321;BME280;66382;52.252;8.780;2024-02-16T07:31:06;100119.31;;;11.67;73.32
77321;BME280;66382;52.252;8.780;2024-02-16T07:33:31;100118.69;;;11.72;72.33
77321;BME280;66382;52.252;8.780;2024-02-16T07:35:57;100124.69;;;11.74;72.42
77321;BME280;66382;52.252;8.780;2024-02-16T07:38:23;100107.13;;;11.78;72.25
77321;BME280;66382;52.252;8.780;2024-02-16T07:40:48;100111.06;;;11.82;72.63
77321;BME280;66382;52.252;8.780;2024-02-16T07:43:13;100117.66;;;11.86;72.42
77321;BME280;66382;52.252;8.780;2024-02-16T07:45:40;100121.63;;;11.90;72.54
77321;BME280;66382;52.252;8.780;2024-02-16T07:48:06;100122.03;;;11.94;72.34
77321;BME280;66382;52.252;8.780;2024-02-16T07:50:32;100121.41;;;11.98;72.11
77321;BME280;66382;52.252;8.780;2024-02-16T07:52:57;100119.97;;;12.02;72.08
77321;BME280;66382;52.252;8.780;2024-02-16T07:55:23;100117.91;;;12.04;72.58
77321;BME280;66382;52.252;8.780;2024-02-16T07:57:48;100115.44;;;12.10;72.23
77321;BME280;66382;52.252;8.780;2024-02-16T08:00:14;100110.44;;;12.13;72.64
77321;BME280;66382;52.252;8.780;2024-02-16T08:02:41;100110.44;;;12.20;72.52
77321;BME280;66382;52.252;8.780;2024-02-16T08:05:07;100109.00;;;12.24;72.48
77321;BME280;66382;52.252;8.780;2024-02-16T08:07:32;100108.16;;;12.30;72.29
77321;BME280;66382;52.252;8.780;2024-02-16T08:09:58;100112.91;;;12.35;71.51
77321;BME280;66382;52.252;8.780;2024-02-16T08:12:23;100110.22;;;12.41;72.46
77321;BME280;66382;52.252;8.780;2024-02-16T08:14:48;100107.09;;;12.44;71.71
77321;BME280;66382;52.252;8.780;2024-02-16T08:17:14;100113.09;;;12.46;71.51
77321;BME280;66382;52.252;8.780;2024-02-16T08:19:41;100104.81;;;12.48;71.81
77321;BME280;66382;52.252;8.780;2024-02-16T08:22:08;100112.66;;;12.50;71.88
77321;BME280;66382;52.252;8.780;2024-02-16T08:24:34;100110.38;;;12.53;72.05
77321;BME280;66382;52.252;8.780;2024-02-16T08:26:59;100106.44;;;12.56;72.02
77321;BME280;66382;52.252;8.780;2024-02-16T08:29:25;100103.34;;;12.59;70.61
77321;BME280;66382;52.252;8.780;2024-02-16T08:31:50;100124.19;;;12.63;72.44
77321;BME280;66382;52.252;8.780;2024-02-16T08:34:16;100123.81;;;12.66;71.74
77321;BME280;66382;52.252;8.780;2024-02-16T08:36:44;100112.63;;;12.69;72.22
77321;BME280;66382;52.252;8.780;2024-02-16T08:39:10;100116.31;;;12.75;72.02
77321;BME280;66382;52.252;8.780;2024-02-16T08:41:35;100115.88;;;12.78;71.95
77321;BME280;66382;52.252;8.780;2024-02-16T08:44:01;100118.78;;;12.83;72.11
77321;BME280;66382;52.252;8.780;2024-02-16T08:46:26;100101.41;;;12.86;71.81
77321;BME280;66382;52.252;8.780;2024-02-16T08:48:52;100116.47;;;12.87;72.09
77321;BME280;66382;52.252;8.780;2024-02-16T08:51:17;100114.19;;;12.90;71.62
77321;BME280;66382;52.252;8.780;2024-02-16T08:53:44;100117.06;;;12.96;71.96
77321;BME280;66382;52.252;8.780;2024-02-16T08:56:10;100127.19;;;13.00;71.98
77321;BME280;66382;52.252;8.780;2024-02-16T08:58:35;100124.66;;;13.05;72.31
77321;BME280;66382;52.252;8.780;2024-02-16T09:01:01;100137.72;;;13.08;71.68
77321;BME280;66382;52.252;8.780;2024-02-16T09:03:26;100139.97;;;13.11;72.00
77321;BME280;66382;52.252;8.780;2024-02-16T09:05:52;100145.75;;;13.15;72.10
77321;BME280;66382;52.252;8.780;2024-02-16T09:08:17;100146.34;;;13.17;71.79
77321;BME280;66382;52.252;8.780;2024-02-16T09:10:44;100149.22;;;13.22;72.17
77321;BME280;66382;52.252;8.780;2024-02-16T09:13:09;100142.38;;;13.26;71.76
77321;BME280;66382;52.252;8.780;2024-02-16T09:15:35;100149.03;;;13.30;71.87
77321;BME280;66382;52.252;8.780;2024-02-16T09:18:00;100144.66;;;13.36;72.03
77321;BME280;66382;52.252;8.780;2024-02-16T09:20:25;100152.09;;;13.41;71.66
77321;BME280;66382;52.252;8.780;2024-02-16T09:22:51;100149.56;;;13.46;71.48
77321;BME280;66382;52.252;8.780;2024-02-16T09:25:16;100154.50;;;13.49;71.60
77321;BME280;66382;52.252;8.780;2024-02-16T09:27:43;100149.50;;;13.52;71.93
77321;BME280;66382;52.252;8.780;2024-02-16T09:30:09;100148.88;;;13.57;71.63
77321;BME280;66382;52.252;8.780;2024-02-16T09:32:35;100144.72;;;13.61;71.28
77321;BME280;66382;52.252;8.780;2024-02-16T09:35:00;100147.56;;;13.66;71.67
77321;BME280;66382;52.252;8.780;2024-02-16T09:37:26;100155.63;;;13.73;71.88
77321;BME280;66382;52.252;8.780;2024-02-16T09:39:51;100161.38;;;13.76;71.44
77321;BME280;66382;52.252;8.780;2024-02-16T09:42:17;100159.69;;;13.82;71.24
77321;BME280;66382;52.252;8.780;2024-02-16T09:44:44;100161.72;;;13.87;71.18
77321;BME280;66382;52.252;8.780;2024-02-16T09:47:10;100160.25;;;13.91;71.49
77321;BME280;66382;52.252;8.780;2024-02-16T09:49:36;100166.00;;;13.94;71.44
77321;BME280;66382;52.252;8.780;2024-02-16T09:52:03;100157.50;;;13.97;71.31
77321;BME280;66382;52.252;8.780;2024-02-16T09:54:30;100164.94;;;14.02;70.82
77321;BME280;66382;52.252;8.780;2024-02-16T09:56:56;100180.88;;;14.04;70.98
77321;BME280;66382;52.252;8.780;2024-02-16T09:59:22;100181.50;;;14.06;71.33
77321;BME280;66382;52.252;8.780;2024-02-16T10:01:59;100183.53;;;14.10;71.71
77321;BME280;66382;52.252;8.780;2024-02-16T10:04:24;100177.50;;;14.15;70.60
77321;BME280;66382;52.252;8.780;2024-02-16T10:06:50;100182.22;;;14.19;70.96
77321;BME280;66382;52.252;8.780;2024-02-16T10:09:25;100176.38;;;14.23;71.96
77321;BME280;66382;52.252;8.780;2024-02-16T10:11:50;100179.44;;;14.26;70.69
77321;BME280;66382;52.252;8.780;2024-02-16T10:14:16;100180.06;;;14.28;70.98
77321;BME280;66382;52.252;8.780;2024-02-16T10:16:41;100180.88;;;14.29;70.72
77321;BME280;66382;52.252;8.780;2024-02-16T10:19:08;100193.09;;;14.31;71.46
77321;BME280;66382;52.252;8.780;2024-02-16T10:21:34;100196.63;;;14.32;70.46
77321;BME280;66382;52.252;8.780;2024-02-16T10:24:00;100190.19;;;14.33;70.43
77321;BME280;66382;52.252;8.780;2024-02-16T10:26:26;100193.25;;;14.36;70.95
77321;BME280;66382;52.252;8.780;2024-02-16T10:28:54;100207.34;;;14.38;70.27
77321;BME280;66382;52.252;8.780;2024-02-16T10:31:22;100201.75;;;14.40;70.52
77321;BME280;66382;52.252;8.780;2024-02-16T10:33:48;100199.66;;;14.42;70.31
77321;BME280;66382;52.252;8.780;2024-02-16T10:36:15;100214.56;;;14.45;70.56
77321;BME280;66382;52.252;8.780;2024-02-16T10:38:41;100208.94;;;14.46;70.37
77321;BME280;66382;52.252;8.780;2024-02-16T10:41:08;100192.34;;;14.49;70.16
77321;BME280;66382;52.252;8.780;2024-02-16T10:43:34;100211.59;;;14.53;71.02
77321;BME280;66382;52.252;8.780;2024-02-16T10:45:59;100212.59;;;14.58;70.34
77321;BME280;66382;52.252;8.780;2024-02-16T10:48:25;100212.34;;;14.67;71.43
77321;BME280;66382;52.252;8.780;2024-02-16T10:50:53;100212.41;;;14.78;71.61
77321;BME280;66382;52.252;8.780;2024-02-16T10:53:24;100212.38;;;15.03;71.56
77321;BME280;66382;52.252;8.780;2024-02-16T10:55:50;100215.25;;;15.39;69.50
77321;BME280;66382;52.252;8.780;2024-02-16T10:58:16;100215.81;;;15.78;70.50
77321;BME280;66382;52.252;8.780;2024-02-16T11:00:49;100228.00;;;16.10;70.54
77321;BME280;66382;52.252;8.780;2024-02-16T11:03:17;100220.31;;;16.38;69.67
77321;BME280;66382;52.252;8.780;2024-02-16T11:05:42;100230.41;;;16.54;69.31
77321;BME280;66382;52.252;8.780;2024-02-16T11:08:12;100224.06;;;16.60;69.76
77321;BME280;66382;52.252;8.780;2024-02-16T11:10:40;100230.41;;;16.54;68.15
77321;BME280;66382;52.252;8.780;2024-02-16T11:13:05;100219.81;;;16.41;68.34
77321;BME280;66382;52.252;8.780;2024-02-16T11:15:31;100232.03;;;16.20;67.07
77321;BME280;66382;52.252;8.780;2024-02-16T11:17:57;100224.59;;;16.03;68.01
77321;BME280;66382;52.252;8.780;2024-02-16T11:20:24;100227.25;;;15.91;68.36
77321;BME280;66382;52.252;8.780;2024-02-16T11:22:51;100223.00;;;15.84;68.25
77321;BME280;66382;52.252;8.780;2024-02-16T11:25:16;100235.56;;;15.78;67.66
77321;BME280;66382;52.252;8.780;2024-02-16T11:27:44;100236.72;;;15.71;68.84
77321;BME280;66382;52.252;8.780;2024-02-16T11:30:11;100230.06;;;15.66;68.67
77321;BME280;66382;52.252;8.780;2024-02-16T11:32:36;100248.25;;;15.59;68.86
77321;BME280;66382;52.252;8.780;2024-02-16T11:35:05;100244.34;;;15.55;69.51
77321;BME280;66382;52.252;8.780;2024-02-16T11:37:31;100250.66;;;15.49;68.88
77321;BME280;66382;52.252;8.780;2024-02-16T11:39:56;100246.16;;;15.43;69.16
77321;BME280;66382;52.252;8.780;2024-02-16T11:42:22;100258.22;;;15.40;68.96
77321;BME280;66382;52.252;8.780;2024-02-16T11:44:52;100255.63;;;15.34;69.05
77321;BME280;66382;52.252;8.780;2024-02-16T11:47:19;100256.31;;;15.29;69.19
77321;BME280;66382;52.252;8.780;2024-02-16T11:49:45;100254.63;;;15.28;69.27
77321;BME280;66382;52.252;8.780;2024-02-16T11:52:11;100256.53;;;15.27;68.86
77321;BME280;66382;52.252;8.780;2024-02-16T11:54:37;100262.75;;;15.28;68.99
77321;BME280;66382;52.252;8.780;2024-02-16T11:57:03;100255.91;;;15.25;69.77
77321;BME280;66382;52.252;8.780;2024-02-16T11:59:28;100261.31;;;15.25;69.58
77321;BME280;66382;52.252;8.780;2024-02-16T12:01:56;100260.75;;;15.23;69.87
77321;BME280;66382;52.252;8.780;2024-02-16T12:04:23;100263.06;;;15.20;69.05
77321;BME280;66382;52.252;8.780;2024-02-16T12:06:51;100263.50;;;15.17;68.80
77321;BME280;66382;52.252;8.780;2024-02-16T12:09:18;100261.25;;;15.14;68.37
77321;BME280;66382;52.252;8.780;2024-02-16T12:11:44;100265.44;;;15.10;68.50
77321;BME280;66382;52.252;8.780;2024-02-16T12:14:10;100258.84;;;15.05;68.66
77321;BME280;66382;52.252;8.780;2024-02-16T12:16:36;100269.06;;;15.03;68.80
77321;BME280;66382;52.252;8.780;2024-02-16T12:19:04;100258.69;;;15.00;68.47
77321;BME280;66382;52.252;8.780;2024-02-16T12:21:30;100262.44;;;14.99;69.72
77321;BME280;66382;52.252;8.780;2024-02-16T12:23:56;100259.75;;;14.99;69.42
77321;BME280;66382;52.252;8.780;2024-02-16T12:26:21;100258.94;;;14.99;68.96
77321;BME280;66382;52.252;8.780;2024-02-16T12:28:48;100262.44;;;14.99;70.12
77321;BME280;66382;52.252;8.780;2024-02-16T12:31:18;100264.31;;;14.99;69.65
77321;BME280;66382;52.252;8.780;2024-02-16T12:33:44;100264.09;;;15.00;69.27
77321;BME280;66382;52.252;8.780;2024-02-16T12:36:11;100271.75;;;15.03;69.48
77321;BME280;66382;52.252;8.780;2024-02-16T12:38:36;100274.00;;;15.07;69.20
77321;BME280;66382;52.252;8.780;2024-02-16T12:41:02;100270.25;;;15.08;69.41
77321;BME280;66382;52.252;8.780;2024-02-16T12:43:27;100270.69;;;15.04;69.68
77321;BME280;66382;52.252;8.780;2024-02-16T12:45:52;100255.56;;;15.03;69.82